Time;durP1;ratioP1;P1;durP2;ratioP2;P2;SDS_P1;SDS_P2;PMS_P1;PMS_P2;Temp;Humidity;BMP_temperature;BMP_pressure;BME280_temperature;BME280_humidity;BME280_pressure;Samples;Min_cycle;Max_cycle;Signal;HPM_P1;HPM_P2
2022/01/26 00:06:07;;;;;;;126.05;18.58;;;-0.80;99.90;;;;;;5020369;28;20112;-51
2022/01/26 00:08:32;;;;;;;69.15;19.60;;;-0.80;99.90;;;;;;5022517;28;20038;-51
2022/01/26 00:10:58;;;;;;;116.75;19.30;;;-0.90;99.90;;;;;;5021628;28;20083;-51
2022/01/26 00:13:24;;;;;;;110.03;20.23;;;-0.90;99.90;;;;;;5036641;28;20557;-51
2022/01/26 00:15:50;;;;;;;62.10;15.77;;;-0.90;99.90;;;;;;5028972;28;20032;-51
2022/01/26 00:18:18;;;;;;;48.30;14.32;;;-0.90;99.90;;;;;;5015287;28;20095;-51
2022/01/26 00:20:54;;;;;;;43.00;13.95;;;-0.90;99.90;;;;;;5017781;28;20133;-51
2022/01/26 00:23:47;;;;;;;78.45;14.93;;;-0.90;99.90;;;;;;5013803;28;20021;-51
2022/01/26 00:26:13;;;;;;;37.30;13.73;;;-0.90;99.90;;;;;;5019526;28;20501;-51
2022/01/26 00:40:19;;;;;;;59.72;14.48;;;-0.80;99.90;;;;;;5017157;28;20418;-50
2022/01/26 00:42:47;;;;;;;40.17;15.10;;;-0.90;99.90;;;;;;5025039;28;20030;-51
2022/01/26 00:45:13;;;;;;;31.70;12.25;;;-0.90;99.90;;;;;;5026354;28;20064;-51
2022/01/26 00:47:39;;;;;;;49.40;13.45;;;-0.90;99.90;;;;;;5026038;28;20060;-52
2022/01/26 00:50:09;;;;;;;112.68;18.27;;;-0.90;99.90;;;;;;5014969;28;20034;-50
2022/01/26 00:52:44;;;;;;;103.53;15.43;;;-0.90;99.90;;;;;;5017805;28;20034;-53
2022/01/26 00:55:12;;;;;;;33.10;12.48;;;-0.90;99.90;;;;;;5026465;28;20025;-51
2022/01/26 00:57:39;;;;;;;107.85;16.15;;;-0.90;99.90;;;;;;5013581;28;21951;-51
2022/01/26 01:00:09;;;;;;;185.75;21.20;;;-0.90;99.90;;;;;;5028334;28;20394;-51
2022/01/26 01:02:34;;;;;;;86.47;14.75;;;-0.90;99.90;;;;;;5021608;28;20038;-50
2022/01/26 01:05:06;;;;;;;38.95;12.73;;;-1.00;99.90;;;;;;5022864;28;20095;-51
2022/01/26 01:07:35;;;;;;;106.97;14.35;;;-1.00;99.90;;;;;;5022282;28;20045;-51
2022/01/26 01:10:01;;;;;;;57.25;16.15;;;-1.00;99.90;;;;;;5019512;28;20056;-50
2022/01/26 01:12:27;;;;;;;72.35;15.40;;;-1.00;99.90;;;;;;5022590;28;20759;-50
2022/01/26 01:14:53;;;;;;;67.38;15.93;;;-1.00;99.90;;;;;;5021565;28;20033;-51
2022/01/26 01:17:25;;;;;;;54.47;17.52;;;-1.00;99.90;;;;;;5012926;28;20076;-53
2022/01/26 01:20:25;;;;;;;83.75;15.95;;;-1.00;99.90;;;;;;5027271;28;21391;-51
2022/01/26 01:28:18;;;;;;;72.78;16.05;;;-1.10;99.90;;;;;;5020537;28;20105;-51
2022/01/26 01:30:48;;;;;;;139.85;19.33;;;-1.10;99.90;;;;;;5025918;28;20060;-51
2022/01/26 01:33:18;;;;;;;108.28;18.20;;;-1.10;99.90;;;;;;5020952;28;20095;-50
2022/01/26 01:35:46;;;;;;;133.70;15.15;;;-1.10;99.90;;;;;;5018399;28;20033;-50
2022/01/26 01:38:15;;;;;;;192.38;23.30;;;-1.20;99.90;;;;;;5023719;28;20025;-50
2022/01/26 01:40:44;;;;;;;81.50;14.18;;;-1.20;99.90;;;;;;5022212;28;20065;-51
2022/01/26 01:43:11;;;;;;;75.63;15.02;;;-1.10;99.90;;;;;;5022469;28;20034;-51
2022/01/26 01:45:45;;;;;;;101.53;15.05;;;-1.10;99.90;;;;;;5024590;28;20036;-51
2022/01/26 01:48:16;;;;;;;81.60;12.82;;;-1.20;99.90;;;;;;5020681;28;20041;-53
2022/01/26 01:50:42;;;;;;;73.82;12.88;;;-1.20;99.90;;;;;;5028972;28;20041;-51
2022/01/26 01:53:14;;;;;;;80.07;16.88;;;-1.20;99.90;;;;;;5027600;28;20032;-51
2022/01/26 01:55:42;;;;;;;73.18;13.38;;;-1.20;99.90;;;;;;5027611;28;20420;-52
2022/01/26 01:58:08;;;;;;;122.20;19.98;;;-1.20;99.90;;;;;;5020288;28;20505;-51
2022/01/26 02:00:36;;;;;;;136.25;18.05;;;-1.30;99.90;;;;;;5022936;28;20310;-55
2022/01/26 02:03:02;;;;;;;107.78;16.65;;;-1.30;99.90;;;;;;5024509;28;20124;-54
2022/01/26 02:05:28;;;;;;;89.55;15.60;;;-1.40;99.90;;;;;;5024681;28;20033;-54
2022/01/26 02:07:53;;;;;;;99.35;17.00;;;-1.50;99.90;;;;;;5024993;28;20033;-55
2022/01/26 02:10:22;;;;;;;44.33;11.90;;;-1.50;99.90;;;;;;5034432;28;20482;-55
2022/01/26 02:12:51;;;;;;;51.22;12.73;;;-1.50;99.90;;;;;;5023064;28;20597;-55
2022/01/26 02:15:22;;;;;;;62.65;13.00;;;-1.40;99.90;;;;;;5020479;28;20562;-55
2022/01/26 03:00:54;;;;;;;28.05;10.40;;;-1.80;99.90;;;;;;5028457;28;20508;-53
2022/01/26 03:03:25;;;;;;;26.55;11.70;;;-1.80;99.90;;;;;;5043222;28;20034;-53
2022/01/26 03:05:57;;;;;;;56.95;13.38;;;-1.80;99.90;;;;;;5043049;28;20037;-54
2022/01/26 03:08:31;;;;;;;61.45;12.85;;;-1.80;99.90;;;;;;5041827;28;20032;-53
2022/01/26 03:11:01;;;;;;;36.33;10.73;;;-1.90;99.90;;;;;;5044043;28;20185;-52
2022/01/26 03:13:30;;;;;;;30.10;10.70;;;-1.90;99.90;;;;;;5039224;28;20039;-51
2022/01/26 03:16:02;;;;;;;23.42;11.95;;;-2.00;99.90;;;;;;5046861;28;20036;-52
2022/01/26 03:21:37;;;;;;;41.83;10.25;;;-2.10;99.90;;;;;;4989407;28;20033;-54
2022/01/26 03:34:25;;;;;;;44.67;11.52;;;-2.10;99.90;;;;;;5024781;28;20048;-53
2022/01/26 03:36:56;;;;;;;24.05;8.20;;;-2.20;99.90;;;;;;5027244;28;20478;-52
2022/01/26 03:39:24;;;;;;;46.92;10.45;;;-2.30;99.90;;;;;;5020719;28;20402;-52
2022/01/26 03:42:05;;;;;;;24.42;9.98;;;-2.30;99.90;;;;;;5018851;28;20124;-53
2022/01/26 03:44:31;;;;;;;21.73;9.60;;;-2.30;99.90;;;;;;5016256;28;20550;-52
2022/01/26 03:46:57;;;;;;;16.20;7.85;;;-2.40;99.90;;;;;;5014713;28;20034;-54
2022/01/26 03:49:23;;;;;;;35.45;9.75;;;-2.50;99.90;;;;;;5015480;28;20021;-52
2022/01/26 03:51:48;;;;;;;38.88;11.48;;;-2.50;99.90;;;;;;5027731;28;20030;-54
2022/01/26 03:54:16;;;;;;;34.33;8.80;;;-2.40;99.90;;;;;;5017022;28;20540;-54
2022/01/26 03:56:42;;;;;;;19.90;9.13;;;-2.40;99.90;;;;;;5014578;28;20029;-55
2022/01/26 03:59:10;;;;;;;22.48;9.43;;;-2.40;99.90;;;;;;5025091;28;20033;-53
2022/01/26 04:01:36;;;;;;;18.93;8.70;;;-2.40;99.90;;;;;;5015272;28;20029;-54
2022/01/26 04:04:02;;;;;;;18.63;7.97;;;-2.40;99.90;;;;;;5016011;28;20053;-54
2022/01/26 04:06:30;;;;;;;16.10;8.57;;;-2.40;99.90;;;;;;5012707;28;20018;-52
2022/01/26 04:08:56;;;;;;;11.43;7.63;;;-2.30;99.90;;;;;;5017423;28;21730;-54
2022/01/26 04:13:51;;;;;;;18.90;8.27;;;-2.30;99.90;;;;;;5010176;28;20029;-53
2022/01/26 04:16:18;;;;;;;18.40;11.20;;;-2.30;99.90;;;;;;5009176;28;20056;-53
2022/01/26 04:18:43;;;;;;;20.83;8.63;;;-2.30;99.90;;;;;;5020494;28;20034;-53
2022/01/26 04:21:43;;;;;;;22.77;10.85;;;-2.30;99.90;;;;;;5023748;28;20371;-54
2022/01/26 04:24:20;;;;;;;33.53;10.68;;;-2.30;99.90;;;;;;5024042;28;20248;-55
2022/01/26 04:26:56;;;;;;;20.77;9.73;;;-2.40;99.90;;;;;;5016854;28;20017;-53
2022/01/26 04:29:28;;;;;;;17.60;8.70;;;-2.40;99.90;;;;;;5017626;28;20036;-52
2022/01/26 04:31:54;;;;;;;29.63;9.45;;;-2.30;99.90;;;;;;5019362;28;20494;-53
2022/01/26 04:34:20;;;;;;;48.83;11.13;;;-2.30;99.90;;;;;;5021908;28;20489;-53
2022/01/26 04:37:15;;;;;;;24.13;9.48;;;-2.30;99.90;;;;;;5031483;28;20029;-55
2022/01/26 04:39:39;;;;;;;35.08;11.13;;;-2.40;99.90;;;;;;5021835;28;20798;-53
2022/01/26 04:42:11;;;;;;;26.33;11.68;;;-2.30;99.90;;;;;;5022213;28;20049;-52
2022/01/26 04:44:50;;;;;;;20.85;10.95;;;-2.30;99.90;;;;;;5024957;28;20038;-53
2022/01/26 04:47:16;;;;;;;21.65;9.23;;;-2.40;99.90;;;;;;5022405;28;20025;-52
2022/01/26 04:49:41;;;;;;;33.33;12.85;;;-2.30;99.90;;;;;;5020061;28;20628;-52
2022/01/26 04:52:07;;;;;;;33.85;14.15;;;-2.30;99.90;;;;;;5022078;28;20030;-52
2022/01/26 04:54:33;;;;;;;101.38;16.85;;;-2.30;99.90;;;;;;5015628;28;20057;-54
2022/01/26 04:56:58;;;;;;;31.42;10.82;;;-2.40;99.90;;;;;;5028121;28;20038;-52
2022/01/26 04:59:24;;;;;;;29.85;9.65;;;-2.40;99.90;;;;;;5026644;28;20037;-53
2022/01/26 05:01:49;;;;;;;20.42;10.57;;;-2.40;99.90;;;;;;5027731;28;20025;-54
2022/01/26 05:04:15;;;;;;;29.95;12.63;;;-2.50;99.90;;;;;;5026112;28;20029;-52
2022/01/26 05:06:40;;;;;;;82.32;17.17;;;-2.50;99.90;;;;;;5027476;28;20053;-52
2022/01/26 05:09:06;;;;;;;81.13;12.43;;;-2.50;99.90;;;;;;5023596;28;20108;-52
2022/01/26 05:11:36;;;;;;;25.38;11.05;;;-2.50;99.90;;;;;;5024991;28;20486;-52
2022/01/26 05:14:03;;;;;;;20.83;10.13;;;-2.50;99.90;;;;;;5023655;28;20033;-53
2022/01/26 05:16:29;;;;;;;24.15;9.88;;;-2.50;99.90;;;;;;5027046;28;20459;-54
2022/01/26 05:18:55;;;;;;;25.60;10.60;;;-2.50;99.90;;;;;;5028826;28;20104;-54
2022/01/26 05:21:22;;;;;;;19.42;9.77;;;-2.40;99.90;;;;;;5019819;28;20045;-52
2022/01/26 05:23:48;;;;;;;28.35;11.48;;;-2.50;99.90;;;;;;5021753;28;20598;-53
2022/01/26 05:26:14;;;;;;;13.43;8.88;;;-2.50;99.90;;;;;;5025722;28;20341;-53
2022/01/26 05:28:40;;;;;;;24.85;9.52;;;-2.50;99.90;;;;;;5020563;28;20026;-52
2022/01/26 05:31:05;;;;;;;21.58;9.90;;;-2.50;99.90;;;;;;5025426;28;20045;-54
2022/01/26 05:33:31;;;;;;;19.88;9.13;;;-2.40;99.90;;;;;;5016125;28;20091;-52
2022/01/26 05:35:57;;;;;;;26.75;12.68;;;-2.40;99.90;;;;;;5023282;28;20045;-51
2022/01/26 05:38:22;;;;;;;17.67;8.90;;;-2.40;99.90;;;;;;5023611;28;20055;-53
2022/01/26 05:40:50;;;;;;;28.25;12.75;;;-2.50;99.90;;;;;;5021399;28;20053;-51
2022/01/26 05:43:16;;;;;;;18.38;11.02;;;-2.50;99.90;;;;;;5028311;28;20020;-52
2022/01/26 05:45:44;;;;;;;25.55;12.45;;;-2.50;99.90;;;;;;5017651;28;20271;-52
2022/01/26 05:48:12;;;;;;;23.08;10.82;;;-2.50;99.90;;;;;;5026407;28;20070;-54
2022/01/26 05:50:38;;;;;;;23.52;9.65;;;-2.40;99.90;;;;;;5021828;28;20147;-53
2022/01/26 05:53:04;;;;;;;20.75;10.15;;;-2.40;99.90;;;;;;5024071;28;20099;-52
2022/01/26 05:55:30;;;;;;;21.65;11.27;;;-2.50;99.90;;;;;;5020703;28;20463;-53
2022/01/26 05:57:56;;;;;;;22.85;9.60;;;-2.40;99.90;;;;;;5021089;28;20084;-54
2022/01/26 06:00:22;;;;;;;23.92;11.50;;;-2.40;99.90;;;;;;5020534;28;20037;-54
2022/01/26 06:02:47;;;;;;;20.58;10.35;;;-2.40;99.90;;;;;;5025164;28;20034;-53
2022/01/26 06:05:13;;;;;;;21.33;9.07;;;-2.40;99.90;;;;;;5017085;28;20466;-55
2022/01/26 06:07:39;;;;;;;22.67;12.45;;;-2.40;99.90;;;;;;5019804;28;20048;-54
2022/01/26 06:10:05;;;;;;;28.25;11.30;;;-2.40;99.90;;;;;;5025258;28;20033;-55
2022/01/26 06:12:33;;;;;;;29.08;12.32;;;-2.40;99.90;;;;;;5022472;28;20030;-54
2022/01/26 06:15:00;;;;;;;;;;;-2.40;99.90;;;;;;5022804;28;20487;-52
2022/01/26 06:17:26;;;;;;;23.90;10.88;;;-2.40;99.90;;;;;;5027235;28;19917;-55
2022/01/26 06:19:52;;;;;;;23.38;11.18;;;-2.40;99.90;;;;;;5020437;28;20395;-54
2022/01/26 06:22:17;;;;;;;20.48;10.95;;;-2.40;99.90;;;;;;5016985;28;20166;-54
2022/01/26 06:24:43;;;;;;;23.42;11.38;;;-2.40;99.90;;;;;;5017745;28;20025;-52
2022/01/26 06:27:09;;;;;;;24.00;11.65;;;-2.40;99.90;;;;;;5023070;28;20184;-54
2022/01/26 06:29:34;;;;;;;29.67;11.27;;;-2.40;99.90;;;;;;5017891;28;20102;-53
2022/01/26 06:32:00;;;;;;;29.58;13.45;;;-2.40;99.90;;;;;;5012660;28;20045;-52
2022/01/26 06:34:26;;;;;;;31.30;13.15;;;-2.40;99.90;;;;;;5010119;28;20033;-54
2022/01/26 06:36:52;;;;;;;30.65;13.55;;;-2.50;99.90;;;;;;5014009;28;20104;-53
2022/01/26 06:39:17;;;;;;;29.67;14.25;;;-2.50;99.90;;;;;;5019836;28;20029;-52
2022/01/26 06:41:51;;;;;;;18.63;9.20;;;-2.40;99.90;;;;;;5019256;28;20057;-53
2022/01/26 06:44:24;;;;;;;23.80;10.85;;;-2.40;99.90;;;;;;5021948;28;20076;-53
2022/01/26 06:47:03;;;;;;;27.10;13.27;;;-2.40;99.90;;;;;;5017876;28;20048;-52
2022/01/26 06:49:29;;;;;;;24.92;12.25;;;-2.40;99.90;;;;;;5022074;28;20125;-52
2022/01/26 06:51:55;;;;;;;24.50;11.63;;;-2.40;99.90;;;;;;5019331;28;20573;-53
2022/01/26 06:54:22;;;;;;;21.33;9.52;;;-2.40;99.90;;;;;;5029096;28;20425;-52
2022/01/26 06:56:48;;;;;;;25.33;11.88;;;-2.40;99.90;;;;;;5020605;28;20116;-52
2022/01/26 06:59:14;;;;;;;31.30;11.85;;;-2.40;99.90;;;;;;5025059;28;20423;-53
2022/01/26 07:01:41;;;;;;;20.92;11.15;;;-2.40;99.90;;;;;;5020986;28;20041;-54
2022/01/26 07:04:07;;;;;;;27.45;11.45;;;-2.40;99.90;;;;;;5021443;28;20021;-54
2022/01/26 07:06:32;;;;;;;27.15;13.65;;;-2.40;99.90;;;;;;5025743;28;20029;-52
2022/01/26 07:08:58;;;;;;;37.10;11.82;;;-2.40;99.90;;;;;;5021061;28;20368;-53
2022/01/26 07:11:23;;;;;;;24.55;12.82;;;-2.40;99.90;;;;;;5024138;28;20525;-52
2022/01/26 07:13:52;;;;;;;28.23;13.63;;;-2.40;99.90;;;;;;5021279;28;20470;-52
2022/01/26 07:21:47;;;;;;;29.73;12.30;;;-2.30;99.90;;;;;;5021318;28;20090;-52
2022/01/26 07:24:13;;;;;;;33.17;13.23;;;-2.30;99.90;;;;;;5015241;28;20037;-53
2022/01/26 07:26:39;;;;;;;35.08;14.02;;;-2.30;99.90;;;;;;5020050;28;20030;-54
2022/01/26 07:29:10;;;;;;;133.38;50.05;;;-2.30;99.90;;;;;;5022944;28;20466;-52
2022/01/26 07:31:38;;;;;;;41.78;19.40;;;-2.30;99.90;;;;;;5025674;28;20069;-52
2022/01/26 07:34:04;;;;;;;34.60;14.93;;;-2.40;99.90;;;;;;5029455;28;20026;-52
2022/01/26 07:36:29;;;;;;;33.67;14.38;;;-2.40;99.90;;;;;;5017941;28;20052;-52
2022/01/26 07:39:05;;;;;;;50.20;19.85;;;-2.40;99.90;;;;;;5016870;28;20117;-53
2022/01/26 07:41:31;;;;;;;30.27;15.80;;;-2.40;99.90;;;;;;5018170;28;20050;-52
2022/01/26 07:43:56;;;;;;;39.50;17.33;;;-2.30;99.90;;;;;;5018049;28;20084;-53
2022/01/26 07:46:24;;;;;;;115.63;44.80;;;-2.40;99.90;;;;;;5022000;28;20530;-52
2022/01/26 07:48:49;;;;;;;42.08;21.38;;;-2.30;99.90;;;;;;5023051;28;20480;-55
2022/01/26 07:51:15;;;;;;;43.33;18.17;;;-2.30;99.90;;;;;;5016045;28;20029;-54
2022/01/26 07:53:41;;;;;;;33.28;13.27;;;-2.30;99.90;;;;;;5012931;28;20036;-52
2022/01/26 07:56:06;;;;;;;33.65;14.75;;;-2.30;99.90;;;;;;5025227;28;20029;-52
2022/01/26 07:58:32;;;;;;;25.00;12.63;;;-2.30;99.90;;;;;;5020074;28;20034;-54
2022/01/26 08:00:58;;;;;;;35.90;13.93;;;-2.30;99.90;;;;;;5017784;28;20030;-53
2022/01/26 08:03:24;;;;;;;31.13;13.32;;;-2.30;99.90;;;;;;5018005;28;20099;-52
2022/01/26 08:05:50;;;;;;;51.55;15.55;;;-2.30;99.90;;;;;;5011202;28;20026;-52
2022/01/26 08:08:16;;;;;;;32.78;13.40;;;-2.30;99.90;;;;;;5018040;28;20045;-53
2022/01/26 08:10:41;;;;;;;29.88;13.07;;;-2.20;99.90;;;;;;5012964;28;20028;-52
2022/01/26 08:13:07;;;;;;;35.90;16.40;;;-2.20;99.90;;;;;;5013477;28;20060;-53
2022/01/26 08:15:33;;;;;;;37.20;16.02;;;-2.20;99.90;;;;;;5019525;28;20059;-51
2022/01/26 08:17:59;;;;;;;46.17;14.52;;;-2.20;99.90;;;;;;5021427;28;20041;-52
2022/01/26 08:20:25;;;;;;;32.80;14.82;;;-2.20;99.90;;;;;;5017993;28;20060;-51
2022/01/26 08:22:53;;;;;;;26.48;11.48;;;-2.20;99.90;;;;;;5019907;28;20057;-55
2022/01/26 08:25:19;;;;;;;36.88;14.52;;;-2.10;99.90;;;;;;5052718;28;20149;-55
2022/01/26 08:27:52;;;;;;;34.90;14.25;;;-2.10;99.90;;;;;;5025976;28;20033;-55
2022/01/26 08:30:19;;;;;;;26.20;13.57;;;-2.10;99.90;;;;;;5022736;28;20044;-53
2022/01/26 08:32:46;;;;;;;39.60;18.38;;;-2.10;99.90;;;;;;5027322;28;20044;-53
2022/01/26 08:35:11;;;;;;;32.05;13.50;;;-2.00;99.90;;;;;;5029867;28;20082;-52
2022/01/26 08:37:37;;;;;;;28.35;14.23;;;-2.00;99.90;;;;;;5014623;28;20079;-53
2022/01/26 08:40:04;;;;;;;28.88;12.38;;;-2.00;99.90;;;;;;5024413;28;20041;-55
2022/01/26 08:42:31;;;;;;;28.95;15.13;;;-2.00;99.90;;;;;;5021180;28;20060;-52
2022/01/26 08:44:56;;;;;;;37.20;15.27;;;-2.00;99.90;;;;;;5021792;28;20037;-54
2022/01/26 08:47:22;;;;;;;35.58;13.57;;;-2.00;99.90;;;;;;5016974;28;20025;-55
2022/01/26 08:49:48;;;;;;;26.30;14.55;;;-1.90;99.90;;;;;;5025623;28;20038;-52
2022/01/26 08:52:14;;;;;;;27.33;14.02;;;-1.90;99.90;;;;;;5023898;28;20061;-53
2022/01/26 08:54:40;;;;;;;31.58;14.00;;;-1.90;99.90;;;;;;5016150;28;20021;-54
2022/01/26 08:57:06;;;;;;;30.15;14.38;;;-1.90;99.90;;;;;;5024633;28;20022;-53
2022/01/26 08:59:31;;;;;;;30.38;12.43;;;-1.80;99.90;;;;;;5047194;28;20359;-54
2022/01/26 09:01:57;;;;;;;31.45;15.45;;;-1.80;99.90;;;;;;5018074;28;20032;-54
2022/01/26 09:04:22;;;;;;;37.42;16.20;;;-1.80;99.90;;;;;;5016409;28;20057;-52
2022/01/26 09:06:54;;;;;;;29.52;14.73;;;-1.70;99.90;;;;;;5019384;28;20023;-52
2022/01/26 09:09:22;;;;;;;26.60;13.40;;;-1.80;99.90;;;;;;5020140;28;20174;-53
2022/01/26 09:11:49;;;;;;;31.88;14.15;;;-1.80;99.90;;;;;;5018105;28;20073;-54
2022/01/26 09:14:21;;;;;;;30.00;14.60;;;-1.80;99.90;;;;;;5021675;28;20034;-51
2022/01/26 09:16:50;;;;;;;31.50;14.45;;;-1.80;99.90;;;;;;5020721;28;20113;-54
2022/01/26 09:19:27;;;;;;;32.92;15.50;;;-1.70;99.90;;;;;;5020508;28;20040;-53
2022/01/26 09:22:00;;;;;;;37.38;14.27;;;-1.70;99.90;;;;;;5023958;28;20374;-53
2022/01/26 09:24:28;;;;;;;28.02;13.55;;;-1.70;99.90;;;;;;5014598;28;20033;-53
2022/01/26 09:26:53;;;;;;;36.13;13.60;;;-1.60;99.90;;;;;;5023360;28;20034;-53
2022/01/26 09:29:19;;;;;;;34.03;14.27;;;-1.60;99.90;;;;;;5024718;28;20032;-53
2022/01/26 09:31:47;;;;;;;28.98;14.32;;;-1.60;99.90;;;;;;5025319;28;20120;-52
2022/01/26 09:34:15;;;;;;;40.35;16.90;;;-1.60;99.90;;;;;;5021008;28;20033;-54
2022/01/26 09:36:41;;;;;;;26.33;13.75;;;-1.60;99.90;;;;;;5025134;28;20041;-54
2022/01/26 09:39:06;;;;;;;39.25;18.17;;;-1.50;99.90;;;;;;5023828;28;20554;-53
2022/01/26 09:41:34;;;;;;;39.47;15.65;;;-1.50;99.90;;;;;;5025670;28;20053;-52
2022/01/26 09:44:02;;;;;;;33.37;14.67;;;-1.50;99.90;;;;;;5020572;28;20030;-53
2022/01/26 09:46:29;;;;;;;29.95;14.20;;;-1.40;99.90;;;;;;5017507;28;20280;-54
2022/01/26 09:48:56;;;;;;;34.60;16.52;;;-1.40;99.90;;;;;;5018711;28;20037;-53
2022/01/26 09:51:21;;;;;;;43.30;16.92;;;-1.30;99.90;;;;;;5026794;28;20143;-52
2022/01/26 09:54:02;;;;;;;32.95;13.90;;;-1.20;99.90;;;;;;5021014;28;20036;-55
2022/01/26 09:56:28;;;;;;;31.83;15.57;;;-1.20;99.90;;;;;;5015971;28;20041;-54
2022/01/26 09:58:54;;;;;;;37.13;15.15;;;-1.10;99.90;;;;;;5018469;28;20068;-53
2022/01/26 10:01:20;;;;;;;35.55;14.65;;;-1.10;99.90;;;;;;5023070;28;20479;-55
2022/01/26 10:03:46;;;;;;;40.22;17.23;;;-1.10;99.90;;;;;;5025754;28;20037;-53
2022/01/26 10:06:22;;;;;;;34.42;16.25;;;-1.10;99.90;;;;;;5021658;28;20866;-54
2022/01/26 10:19:07;;;;;;;31.10;15.65;;;-1.00;99.90;;;;;;5021926;28;20025;-56
2022/01/26 10:21:44;;;;;;;29.08;14.38;;;-0.90;99.90;;;;;;5015941;28;20033;-53
2022/01/26 10:24:10;;;;;;;34.90;15.57;;;-0.90;99.90;;;;;;5015619;28;20067;-54
2022/01/26 10:26:36;;;;;;;40.03;16.38;;;-0.80;99.90;;;;;;5020511;28;20026;-52
2022/01/26 10:29:04;;;;;;;35.20;16.33;;;-0.90;99.90;;;;;;5015237;28;20045;-52
2022/01/26 10:31:39;;;;;;;38.75;16.25;;;-0.80;99.90;;;;;;5020604;28;20037;-53
2022/01/26 10:34:15;;;;;;;36.40;16.17;;;-0.80;99.90;;;;;;5023650;28;20029;-54
2022/01/26 10:36:41;;;;;;;36.25;16.55;;;-0.70;99.90;;;;;;5018792;28;20034;-54
2022/01/26 10:39:09;;;;;;;33.22;15.77;;;-0.80;99.90;;;;;;5013552;28;20048;-55
2022/01/26 10:41:40;;;;;;;36.83;15.20;;;-0.60;99.90;;;;;;5017318;28;20061;-55
2022/01/26 10:44:06;;;;;;;37.33;15.90;;;-0.60;99.90;;;;;;5018240;28;20029;-55
2022/01/26 10:46:40;;;;;;;42.65;16.05;;;-0.60;99.90;;;;;;5017013;28;20029;-53
2022/01/26 10:49:30;;;;;;;40.90;20.25;;;-0.60;99.90;;;;;;5020245;28;20463;-55
2022/01/26 10:52:01;;;;;;;56.40;21.85;;;-0.60;99.90;;;;;;5018754;28;20534;-55
2022/01/26 10:54:37;;;;;;;46.33;22.02;;;-0.50;99.90;;;;;;5022188;28;20044;-54
2022/01/26 10:57:13;;;;;;;47.15;18.50;;;-0.50;99.90;;;;;;5046224;28;20647;-55
2022/01/26 10:59:42;;;;;;;42.92;19.10;;;-0.50;99.90;;;;;;5016422;28;20496;-55
2022/01/26 11:02:09;;;;;;;41.45;18.25;;;-0.50;99.90;;;;;;5020589;28;20030;-53
2022/01/26 11:04:37;;;;;;;36.17;16.75;;;-0.50;99.90;;;;;;5011978;28;20029;-53
2022/01/26 11:07:05;;;;;;;36.67;17.40;;;-0.40;99.90;;;;;;5016189;28;20068;-53
2022/01/26 11:09:34;;;;;;;32.65;16.70;;;-0.40;99.90;;;;;;5012403;28;20029;-53
2022/01/26 11:12:04;;;;;;;34.20;16.67;;;-0.30;99.90;;;;;;5017526;28;20377;-53
2022/01/26 11:14:44;;;;;;;37.25;16.95;;;-0.30;99.90;;;;;;5020155;28;20441;-52
2022/01/26 11:17:23;;;;;;;39.95;17.80;;;-0.20;99.90;;;;;;5013148;28;20033;-53
2022/01/26 11:19:49;;;;;;;34.13;17.60;;;-0.20;99.90;;;;;;5019225;28;20025;-55
2022/01/26 11:22:15;;;;;;;35.17;17.00;;;-0.10;99.90;;;;;;5023411;28;20394;-55
2022/01/26 11:24:48;;;;;;;38.85;17.80;;;-0.20;99.90;;;;;;5023601;28;20484;-53
2022/01/26 11:27:16;;;;;;;34.65;15.98;;;-0.20;99.90;;;;;;5023510;28;20071;-54
2022/01/26 11:29:47;;;;;;;39.42;16.52;;;-0.20;99.90;;;;;;5012985;28;20109;-52
2022/01/26 11:32:31;;;;;;;26.73;14.45;;;-0.10;99.90;;;;;;5011557;28;20097;-53
2022/01/26 11:34:57;;;;;;;39.55;15.43;;;0.00;99.90;;;;;;5019624;28;20045;-55
2022/01/26 11:37:45;;;;;;;39.33;16.55;;;0.10;99.90;;;;;;5014818;28;20021;-52
2022/01/26 11:46:09;;;;;;;33.85;14.00;;;0.40;99.90;;;;;;5020683;28;20060;-54
2022/01/26 11:48:36;;;;;;;34.20;15.77;;;0.40;99.90;;;;;;5022509;28;20033;-55
2022/01/26 11:51:03;;;;;;;38.17;15.95;;;0.40;99.90;;;;;;5023419;28;20069;-53
2022/01/26 11:53:30;;;;;;;30.92;15.80;;;0.40;99.90;;;;;;5026854;28;20037;-53
2022/01/26 11:56:07;;;;;;;36.65;14.45;;;0.40;99.90;;;;;;5021242;28;20172;-55
2022/01/26 11:58:37;;;;;;;37.90;16.13;;;0.40;99.90;;;;;;5019334;28;20025;-53
2022/01/26 12:03:47;;;;;;;38.45;15.02;;;0.50;99.90;;;;;;5024387;28;20101;-52
2022/01/26 12:06:21;;;;;;;31.27;15.90;;;0.60;99.90;;;;;;5023538;28;20028;-54
2022/01/26 12:08:48;;;;;;;33.33;14.02;;;0.60;99.90;;;;;;5022131;28;20033;-54
2022/01/26 12:11:16;;;;;;;31.55;14.15;;;0.60;99.90;;;;;;5030496;28;20484;-52
2022/01/26 12:13:43;;;;;;;34.85;14.82;;;0.70;99.90;;;;;;5028586;28;20073;-51
2022/01/26 12:16:19;;;;;;;27.73;13.55;;;0.70;99.90;;;;;;5032662;28;20521;-52
2022/01/26 12:19:10;;;;;;;32.90;14.25;;;0.70;99.90;;;;;;5022657;28;20026;-52
2022/01/26 12:38:38;;;;;;;33.67;13.60;;;0.70;99.90;;;;;;5015691;28;20379;-51
2022/01/26 12:41:18;;;;;;;26.35;13.75;;;0.80;99.90;;;;;;5023761;28;20072;-52
2022/01/26 12:43:47;;;;;;;24.75;12.25;;;0.80;99.90;;;;;;5014755;28;20108;-52
2022/01/26 12:46:27;;;;;;;34.05;14.57;;;0.90;99.90;;;;;;5016493;28;20026;-52
2022/01/26 12:49:07;;;;;;;23.77;11.82;;;0.90;99.90;;;;;;5013678;28;20037;-52
2022/01/26 12:51:45;;;;;;;28.83;13.13;;;0.90;99.90;;;;;;5011029;28;20037;-54
2022/01/26 12:54:12;;;;;;;28.13;12.02;;;1.00;99.90;;;;;;5015461;28;20418;-53
2022/01/26 12:56:38;;;;;;;25.90;14.93;;;1.10;99.90;;;;;;5014437;28;20108;-54
2022/01/26 12:59:16;;;;;;;36.22;14.25;;;1.10;99.90;;;;;;5019145;28;20034;-52
2022/01/26 13:01:44;;;;;;;31.83;14.45;;;1.20;99.90;;;;;;5014644;28;20033;-52
2022/01/26 13:04:13;;;;;;;34.25;15.40;;;1.20;99.90;;;;;;5016536;28;20097;-52
2022/01/26 13:06:47;;;;;;;30.05;13.27;;;1.20;99.90;;;;;;5017110;28;20086;-54
2022/01/26 13:09:26;;;;;;;38.38;15.80;;;1.20;99.90;;;;;;5016434;28;20482;-52
2022/01/26 13:11:57;;;;;;;29.77;13.90;;;1.20;99.90;;;;;;5021416;28;20032;-52
2022/01/26 13:14:46;;;;;;;31.23;13.20;;;1.10;99.90;;;;;;5017429;28;20394;-55
2022/01/26 13:17:24;;;;;;;;;;;1.20;99.90;;;;;;5011322;28;20071;-52
2022/01/26 13:20:13;;;;;;;23.92;12.77;;;1.20;99.90;;;;;;5019680;28;20004;-51
2022/01/26 13:25:27;;;;;;;28.05;13.75;;;1.20;99.90;;;;;;5021846;28;20028;-51
2022/01/26 13:28:09;;;;;;;31.63;13.63;;;1.20;99.90;;;;;;5019030;28;20034;-53
2022/01/26 13:30:55;;;;;;;27.25;12.10;;;1.20;99.90;;;;;;5021508;28;20126;-52
2022/01/26 13:36:54;;;;;;;27.98;12.82;;;1.20;99.90;;;;;;5019873;28;20438;-52
2022/01/26 13:59:55;;;;;;;27.55;12.52;;;1.50;99.90;;;;;;5016613;28;20024;-52
2022/01/26 14:02:21;;;;;;;35.33;16.08;;;1.60;99.90;;;;;;5018683;28;20044;-54
2022/01/26 14:04:47;;;;;;;26.98;13.00;;;1.50;99.90;;;;;;5024134;28;20406;-52
2022/01/26 14:07:12;;;;;;;35.40;14.30;;;1.60;99.90;;;;;;5023632;28;20041;-53
2022/01/26 14:09:38;;;;;;;31.50;14.00;;;1.60;99.90;;;;;;5023026;28;20061;-54
2022/01/26 14:12:06;;;;;;;25.13;13.18;;;1.60;99.90;;;;;;5016054;28;20029;-53
2022/01/26 14:14:36;;;;;;;29.00;14.50;;;1.60;99.90;;;;;;5015739;28;20407;-53
2022/01/26 14:17:04;;;;;;;30.73;14.23;;;1.60;99.90;;;;;;5019249;28;20434;-54
2022/01/26 14:19:50;;;;;;;28.20;15.18;;;1.60;99.90;;;;;;5020966;28;20038;-52
2022/01/26 14:27:23;;;;;;;28.35;13.82;;;1.60;99.90;;;;;;5016536;28;20167;-53
2022/01/26 14:54:05;;;;;;;33.72;15.23;;;1.60;99.90;;;;;;5024702;28;20040;-52
2022/01/26 15:00:03;;;;;;;24.58;12.23;;;1.60;99.90;;;;;;5018297;28;20188;-54
2022/01/26 15:42:31;;;;;;;29.17;13.10;;;0.90;99.90;;;;;;5030616;28;20520;-54
2022/01/26 15:48:43;;;;;;;28.90;13.65;;;0.90;99.90;;;;;;5021964;28;20083;-54
2022/01/26 16:06:54;;;;;;;32.13;12.65;;;0.90;99.90;;;;;;5023856;28;20116;-53
2022/01/26 16:20:44;;;;;;;39.17;13.73;;;1.00;99.90;;;;;;5012707;28;20571;-52
2022/01/26 18:16:36;;;;;;;27.60;14.32;;;0.80;99.90;;;;;;5020218;28;20030;-52
2022/01/26 18:32:55;;;;;;;26.58;13.35;;;0.70;99.90;;;;;;5013038;28;20037;-53
2022/01/26 18:51:40;;;;;;;35.60;15.32;;;0.70;99.90;;;;;;5022119;28;20038;-53
2022/01/26 18:54:07;;;;;;;;;;;0.70;99.90;;;;;;5021532;28;20174;-54
2022/01/26 18:56:35;;;;;;;30.40;14.43;;;0.70;99.90;;;;;;5019674;28;19917;-52
2022/01/26 18:59:01;;;;;;;30.83;13.63;;;0.70;99.90;;;;;;5021580;28;20030;-54
2022/01/26 19:01:27;;;;;;;32.50;14.75;;;0.70;99.90;;;;;;5020460;28;20038;-53
2022/01/26 19:03:53;;;;;;;33.13;14.18;;;0.70;99.90;;;;;;5016335;28;20060;-52
2022/01/26 19:06:19;;;;;;;37.05;13.30;;;0.70;99.90;;;;;;5024748;28;20066;-52
2022/01/26 19:08:45;;;;;;;29.45;14.02;;;0.70;99.90;;;;;;5022616;28;20548;-52
2022/01/26 19:11:11;;;;;;;32.50;14.13;;;0.70;99.90;;;;;;5018614;28;20034;-51
2022/01/26 19:13:41;;;;;;;28.52;13.63;;;0.70;99.90;;;;;;5017386;28;20029;-52
2022/01/26 19:16:21;;;;;;;26.58;13.55;;;0.70;99.90;;;;;;5012979;28;20390;-53